Aérodrome :
LOGIN :

S'inscrire | Disclaimer

   EN    FR    IT 

 










Légende :    VFR   VFR Marginal   IFR   IFR Intensif   IFR Très Intensif
Visi : 
Plafond : 
>= 8 km
>= 3000ft
5 à 8 km
1000 à 3000 ft
1500m à 5 km
500 à 1000 ft
800 à 1500m
200 à 500 ft
< 800m
< 200 ft
Symboles :   Orages  Brouillard  Fortes neiges  Fortes précipitations  Vent > 20 kt
SIGMETs :   Divers  Orages  Givrage  Turbulence  Onde Orograph.  Cendres Volcan.







- Altitude de l'aérodrome : 147 ft
- Code IATA : DUS


EDDL - Düsseldorf Int.

DERNIER METAR :
  • 220550Z 24019KT 9999 -RADZ FEW008 SCT012 BKN016 10/07 Q1007 TEMPO BKN012

METARs EXPIRÉS :
  • 220520Z 24021KT 9999 -RA FEW012 BKN018 11/07 Q1008 NOSIG
  • 220450Z 24023G33KT 9999 SCT017 BKN020 11/07 Q1008 NOSIG
  • 220420Z 24019KT 9999 FEW015 BKN019 11/07 Q1008 NOSIG
  • 220350Z 24020KT 9999 -RA SCT012 BKN015 OVC019 10/08 Q1008 NOSIG
  • 220320Z 24022G36KT 9999 FEW012 BKN014 11/08 Q1009 TEMPO BKN015

TAF TAF EDDL
Valide du 22 à 06h jusqu'au 23 à 12h UTC


220500Z 2206/2312 24015G25KT 9999 BKN015
TEMPO 2206/2219 23020G35KT RA BKN011
BECMG 2219/2221 BKN010
TEMPO 2219/2312 3000 DZRA BR BKN006
BECMG 2305/2308 22020G35KT
Pas de NOTAMs connus pour ce terrain.



MET'MAP, la Météo Aéronautique d'un coup d'oeil ! - Copyright ORBIFLY Décembre 2007 - Disclaimer

ORBIFLY MET'MAP TEAM :

Programmation & Développement : Alexandra Zaïnal
Conception & Développement : Baudouin d'Aumeries
Co-Programmation & Développement : Marc-Olivier Méhu
Soutien technique & logistique : Manuel Goepfert

Contact : metmap@orbifly.com




SOURCES & CREDITS :

   NOAA